sensor_id;sensor_type;location;lat;lon;timestamp;P1;durP1;ratioP1;P2;durP2;ratioP2
11809;SDS011;5962;41.566;23.734;2024-01-10T00:00:18;2.30;;;1.60;;
11809;SDS011;5962;41.566;23.734;2024-01-10T00:02:46;1.83;;;1.20;;
11809;SDS011;5962;41.566;23.734;2024-01-10T00:05:14;4.23;;;2.50;;
11809;SDS011;5962;41.566;23.734;2024-01-10T00:07:45;2.33;;;1.93;;
11809;SDS011;5962;41.566;23.734;2024-01-10T00:10:13;1.67;;;1.57;;
11809;SDS011;5962;41.566;23.734;2024-01-10T00:12:42;2.00;;;1.80;;
11809;SDS011;5962;41.566;23.734;2024-01-10T00:15:11;2.60;;;1.80;;
11809;SDS011;5962;41.566;23.734;2024-01-10T00:17:41;1.30;;;1.20;;
11809;SDS011;5962;41.566;23.734;2024-01-10T00:20:09;1.80;;;1.53;;
11809;SDS011;5962;41.566;23.734;2024-01-10T00:22:38;2.60;;;2.00;;
11809;SDS011;5962;41.566;23.734;2024-01-10T00:25:06;3.00;;;2.20;;
11809;SDS011;5962;41.566;23.734;2024-01-10T00:27:35;1.87;;;1.67;;
11809;SDS011;5962;41.566;23.734;2024-01-10T00:30:04;4.30;;;3.13;;
11809;SDS011;5962;41.566;23.734;2024-01-10T00:32:34;12.53;;;5.27;;
11809;SDS011;5962;41.566;23.734;2024-01-10T00:35:03;2.23;;;1.70;;
11809;SDS011;5962;41.566;23.734;2024-01-10T00:37:32;2.87;;;1.70;;
11809;SDS011;5962;41.566;23.734;2024-01-10T00:40:00;2.93;;;1.60;;
11809;SDS011;5962;41.566;23.734;2024-01-10T00:42:29;1.50;;;1.40;;
11809;SDS011;5962;41.566;23.734;2024-01-10T00:44:57;1.53;;;1.33;;
11809;SDS011;5962;41.566;23.734;2024-01-10T00:47:25;1.53;;;1.37;;
11809;SDS011;5962;41.566;23.734;2024-01-10T00:49:54;1.37;;;1.27;;
11809;SDS011;5962;41.566;23.734;2024-01-10T00:52:24;1.73;;;1.60;;
11809;SDS011;5962;41.566;23.734;2024-01-10T00:54:52;1.93;;;1.67;;
11809;SDS011;5962;41.566;23.734;2024-01-10T00:57:20;2.67;;;1.83;;
11809;SDS011;5962;41.566;23.734;2024-01-10T00:59:49;1.97;;;1.67;;
11809;SDS011;5962;41.566;23.734;2024-01-10T01:02:17;1.73;;;1.50;;
11809;SDS011;5962;41.566;23.734;2024-01-10T01:04:45;1.60;;;1.50;;
11809;SDS011;5962;41.566;23.734;2024-01-10T01:07:13;2.50;;;1.87;;
11809;SDS011;5962;41.566;23.734;2024-01-10T01:09:43;2.00;;;1.80;;
11809;SDS011;5962;41.566;23.734;2024-01-10T01:12:12;2.07;;;1.83;;
11809;SDS011;5962;41.566;23.734;2024-01-10T01:14:40;1.43;;;1.30;;
11809;SDS011;5962;41.566;23.734;2024-01-10T01:17:08;1.40;;;1.30;;
11809;SDS011;5962;41.566;23.734;2024-01-10T01:19:37;1.03;;;0.87;;
11809;SDS011;5962;41.566;23.734;2024-01-10T01:22:05;1.17;;;1.07;;
11809;SDS011;5962;41.566;23.734;2024-01-10T01:24:33;1.53;;;1.30;;
11809;SDS011;5962;41.566;23.734;2024-01-10T01:27:03;1.07;;;0.90;;
11809;SDS011;5962;41.566;23.734;2024-01-10T01:29:32;1.23;;;0.87;;
11809;SDS011;5962;41.566;23.734;2024-01-10T01:32:00;0.83;;;0.83;;
11809;SDS011;5962;41.566;23.734;2024-01-10T01:34:28;1.13;;;1.13;;
11809;SDS011;5962;41.566;23.734;2024-01-10T01:36:57;1.43;;;0.80;;
11809;SDS011;5962;41.566;23.734;2024-01-10T01:39:25;0.73;;;0.73;;
11809;SDS011;5962;41.566;23.734;2024-01-10T01:41:54;0.80;;;0.80;;
11809;SDS011;5962;41.566;23.734;2024-01-10T01:44:23;1.10;;;1.10;;
11809;SDS011;5962;41.566;23.734;2024-01-10T01:46:52;0.70;;;0.70;;
11809;SDS011;5962;41.566;23.734;2024-01-10T01:49:20;1.10;;;1.00;;
11809;SDS011;5962;41.566;23.734;2024-01-10T01:51:49;0.77;;;0.77;;
11809;SDS011;5962;41.566;23.734;2024-01-10T01:54:17;0.80;;;0.80;;
11809;SDS011;5962;41.566;23.734;2024-01-10T01:56:47;1.50;;;1.30;;
11809;SDS011;5962;41.566;23.734;2024-01-10T01:59:17;1.33;;;1.07;;
11809;SDS011;5962;41.566;23.734;2024-01-10T02:01:47;1.20;;;1.10;;
11809;SDS011;5962;41.566;23.734;2024-01-10T02:04:15;1.30;;;1.20;;
11809;SDS011;5962;41.566;23.734;2024-01-10T02:06:43;1.73;;;1.17;;
11809;SDS011;5962;41.566;23.734;2024-01-10T02:09:11;1.20;;;1.17;;
11809;SDS011;5962;41.566;23.734;2024-01-10T02:11:40;1.30;;;1.20;;
11809;SDS011;5962;41.566;23.734;2024-01-10T02:14:08;1.40;;;1.30;;
11809;SDS011;5962;41.566;23.734;2024-01-10T02:16:38;1.37;;;0.90;;
11809;SDS011;5962;41.566;23.734;2024-01-10T02:19:18;1.20;;;1.10;;
11809;SDS011;5962;41.566;23.734;2024-01-10T02:21:48;1.70;;;1.30;;
11809;SDS011;5962;41.566;23.734;2024-01-10T02:24:16;1.60;;;1.10;;
11809;SDS011;5962;41.566;23.734;2024-01-10T02:26:46;1.00;;;0.90;;
11809;SDS011;5962;41.566;23.734;2024-01-10T02:29:16;0.90;;;0.90;;
11809;SDS011;5962;41.566;23.734;2024-01-10T02:31:45;0.87;;;0.87;;
11809;SDS011;5962;41.566;23.734;2024-01-10T02:34:13;1.40;;;1.27;;
11809;SDS011;5962;41.566;23.734;2024-01-10T02:36:41;1.30;;;1.20;;
11809;SDS011;5962;41.566;23.734;2024-01-10T02:39:10;1.30;;;1.10;;
11809;SDS011;5962;41.566;23.734;2024-01-10T02:41:38;2.13;;;1.97;;
11809;SDS011;5962;41.566;23.734;2024-01-10T02:44:08;2.00;;;1.60;;
11809;SDS011;5962;41.566;23.734;2024-01-10T02:46:36;2.33;;;1.70;;
11809;SDS011;5962;41.566;23.734;2024-01-10T02:49:04;1.90;;;1.63;;
11809;SDS011;5962;41.566;23.734;2024-01-10T02:51:33;1.40;;;1.30;;
11809;SDS011;5962;41.566;23.734;2024-01-10T02:54:01;3.13;;;1.50;;
11809;SDS011;5962;41.566;23.734;2024-01-10T02:56:29;1.23;;;1.13;;
11809;SDS011;5962;41.566;23.734;2024-01-10T02:58:58;1.07;;;1.00;;
11809;SDS011;5962;41.566;23.734;2024-01-10T03:01:28;1.10;;;1.00;;
11809;SDS011;5962;41.566;23.734;2024-01-10T03:03:56;1.33;;;1.27;;
11809;SDS011;5962;41.566;23.734;2024-01-10T03:06:24;1.20;;;1.10;;
11809;SDS011;5962;41.566;23.734;2024-01-10T03:08:54;1.10;;;1.00;;
11809;SDS011;5962;41.566;23.734;2024-01-10T03:11:22;1.50;;;1.40;;
11809;SDS011;5962;41.566;23.734;2024-01-10T03:13:51;1.60;;;1.50;;
11809;SDS011;5962;41.566;23.734;2024-01-10T03:16:30;1.50;;;1.20;;
11809;SDS011;5962;41.566;23.734;2024-01-10T03:18:58;1.30;;;1.20;;
11809;SDS011;5962;41.566;23.734;2024-01-10T03:21:27;2.10;;;1.03;;
11809;SDS011;5962;41.566;23.734;2024-01-10T03:23:56;1.30;;;1.20;;
11809;SDS011;5962;41.566;23.734;2024-01-10T03:26:25;2.77;;;1.00;;
11809;SDS011;5962;41.566;23.734;2024-01-10T03:28:54;1.23;;;1.13;;
11809;SDS011;5962;41.566;23.734;2024-01-10T03:31:22;1.80;;;1.47;;
11809;SDS011;5962;41.566;23.734;2024-01-10T03:33:52;2.37;;;1.97;;
11809;SDS011;5962;41.566;23.734;2024-01-10T03:36:20;1.33;;;1.23;;
11809;SDS011;5962;41.566;23.734;2024-01-10T03:38:49;1.83;;;1.63;;
11809;SDS011;5962;41.566;23.734;2024-01-10T03:41:17;1.87;;;1.43;;
11809;SDS011;5962;41.566;23.734;2024-01-10T03:43:46;2.50;;;1.73;;
11809;SDS011;5962;41.566;23.734;2024-01-10T03:46:15;1.97;;;1.77;;
11809;SDS011;5962;41.566;23.734;2024-01-10T03:48:43;2.50;;;2.30;;
11809;SDS011;5962;41.566;23.734;2024-01-10T03:51:17;1.77;;;1.67;;
11809;SDS011;5962;41.566;23.734;2024-01-10T03:53:46;3.07;;;2.37;;
11809;SDS011;5962;41.566;23.734;2024-01-10T03:56:15;11.77;;;7.27;;
11809;SDS011;5962;41.566;23.734;2024-01-10T03:58:44;3.03;;;2.47;;
11809;SDS011;5962;41.566;23.734;2024-01-10T04:01:15;3.83;;;2.60;;
11809;SDS011;5962;41.566;23.734;2024-01-10T04:03:43;6.30;;;1.93;;
11809;SDS011;5962;41.566;23.734;2024-01-10T04:06:12;2.70;;;2.00;;
11809;SDS011;5962;41.566;23.734;2024-01-10T04:08:41;1.83;;;1.57;;
11809;SDS011;5962;41.566;23.734;2024-01-10T04:11:10;3.33;;;2.43;;
11809;SDS011;5962;41.566;23.734;2024-01-10T04:13:38;2.60;;;2.10;;
11809;SDS011;5962;41.566;23.734;2024-01-10T04:16:06;4.57;;;3.00;;
11809;SDS011;5962;41.566;23.734;2024-01-10T04:18:35;3.93;;;1.77;;
11809;SDS011;5962;41.566;23.734;2024-01-10T04:21:03;10.47;;;6.10;;
11809;SDS011;5962;41.566;23.734;2024-01-10T04:23:32;14.60;;;8.97;;
11809;SDS011;5962;41.566;23.734;2024-01-10T04:26:02;3.50;;;2.43;;
11809;SDS011;5962;41.566;23.734;2024-01-10T04:28:31;8.23;;;2.80;;
11809;SDS011;5962;41.566;23.734;2024-01-10T04:30:59;3.73;;;2.50;;
11809;SDS011;5962;41.566;23.734;2024-01-10T04:33:28;4.47;;;2.47;;
11809;SDS011;5962;41.566;23.734;2024-01-10T04:35:56;4.17;;;2.73;;
11809;SDS011;5962;41.566;23.734;2024-01-10T04:38:24;4.17;;;2.90;;
11809;SDS011;5962;41.566;23.734;2024-01-10T04:40:53;4.80;;;2.93;;
11809;SDS011;5962;41.566;23.734;2024-01-10T04:43:23;4.47;;;2.90;;
11809;SDS011;5962;41.566;23.734;2024-01-10T04:45:51;5.87;;;3.77;;
11809;SDS011;5962;41.566;23.734;2024-01-10T04:48:19;7.87;;;5.20;;
11809;SDS011;5962;41.566;23.734;2024-01-10T04:50:47;5.23;;;2.87;;
11809;SDS011;5962;41.566;23.734;2024-01-10T04:53:16;4.70;;;3.47;;
11809;SDS011;5962;41.566;23.734;2024-01-10T04:55:44;10.80;;;5.13;;
11809;SDS011;5962;41.566;23.734;2024-01-10T04:58:14;14.43;;;7.27;;
11809;SDS011;5962;41.566;23.734;2024-01-10T05:00:44;7.83;;;5.47;;
11809;SDS011;5962;41.566;23.734;2024-01-10T05:03:12;10.60;;;4.60;;
11809;SDS011;5962;41.566;23.734;2024-01-10T05:05:41;7.40;;;4.60;;
11809;SDS011;5962;41.566;23.734;2024-01-10T05:08:09;7.00;;;4.80;;
11809;SDS011;5962;41.566;23.734;2024-01-10T05:10:37;9.90;;;6.33;;
11809;SDS011;5962;41.566;23.734;2024-01-10T05:13:05;10.20;;;6.23;;
11809;SDS011;5962;41.566;23.734;2024-01-10T05:15:34;8.73;;;6.03;;
11809;SDS011;5962;41.566;23.734;2024-01-10T05:18:03;12.13;;;7.30;;
11809;SDS011;5962;41.566;23.734;2024-01-10T05:20:32;8.60;;;5.80;;
11809;SDS011;5962;41.566;23.734;2024-01-10T05:23:00;7.73;;;5.10;;
11809;SDS011;5962;41.566;23.734;2024-01-10T05:25:28;7.63;;;5.00;;
11809;SDS011;5962;41.566;23.734;2024-01-10T05:27:57;6.57;;;4.67;;
11809;SDS011;5962;41.566;23.734;2024-01-10T05:30:25;6.40;;;4.50;;
11809;SDS011;5962;41.566;23.734;2024-01-10T05:32:54;3.17;;;2.50;;
11809;SDS011;5962;41.566;23.734;2024-01-10T05:35:23;3.53;;;2.60;;
11809;SDS011;5962;41.566;23.734;2024-01-10T05:37:52;3.97;;;3.10;;
11809;SDS011;5962;41.566;23.734;2024-01-10T05:40:21;4.27;;;3.23;;
11809;SDS011;5962;41.566;23.734;2024-01-10T05:42:49;4.93;;;3.57;;
11809;SDS011;5962;41.566;23.734;2024-01-10T05:45:17;7.00;;;4.50;;
11809;SDS011;5962;41.566;23.734;2024-01-10T05:47:45;5.97;;;4.40;;
11809;SDS011;5962;41.566;23.734;2024-01-10T05:50:14;7.03;;;3.97;;
11809;SDS011;5962;41.566;23.734;2024-01-10T05:52:45;5.97;;;4.00;;
11809;SDS011;5962;41.566;23.734;2024-01-10T05:55:14;5.13;;;3.57;;
11809;SDS011;5962;41.566;23.734;2024-01-10T05:57:42;6.77;;;5.10;;
11809;SDS011;5962;41.566;23.734;2024-01-10T06:00:11;8.90;;;5.17;;
11809;SDS011;5962;41.566;23.734;2024-01-10T06:02:42;8.17;;;5.00;;
11809;SDS011;5962;41.566;23.734;2024-01-10T06:05:11;7.17;;;4.80;;
11809;SDS011;5962;41.566;23.734;2024-01-10T06:07:40;8.30;;;4.60;;
11809;SDS011;5962;41.566;23.734;2024-01-10T06:10:10;32.83;;;19.67;;
11809;SDS011;5962;41.566;23.734;2024-01-10T06:12:39;7.43;;;5.10;;
11809;SDS011;5962;41.566;23.734;2024-01-10T06:15:07;7.30;;;4.87;;
11809;SDS011;5962;41.566;23.734;2024-01-10T06:17:36;32.00;;;16.23;;
11809;SDS011;5962;41.566;23.734;2024-01-10T06:20:05;9.40;;;6.80;;
11809;SDS011;5962;41.566;23.734;2024-01-10T06:22:34;7.57;;;6.47;;
11809;SDS011;5962;41.566;23.734;2024-01-10T06:25:03;13.23;;;5.60;;
11809;SDS011;5962;41.566;23.734;2024-01-10T06:30:22;18.60;;;6.00;;
11809;SDS011;5962;41.566;23.734;2024-01-10T06:32:50;14.10;;;6.73;;
11809;SDS011;5962;41.566;23.734;2024-01-10T06:35:18;16.10;;;6.83;;
11809;SDS011;5962;41.566;23.734;2024-01-10T06:37:47;10.67;;;7.83;;
11809;SDS011;5962;41.566;23.734;2024-01-10T06:40:15;29.70;;;15.97;;
11809;SDS011;5962;41.566;23.734;2024-01-10T06:42:44;18.53;;;7.63;;
11809;SDS011;5962;41.566;23.734;2024-01-10T06:45:13;6.90;;;4.27;;
11809;SDS011;5962;41.566;23.734;2024-01-10T06:47:42;8.17;;;5.23;;
11809;SDS011;5962;41.566;23.734;2024-01-10T06:50:10;8.70;;;4.63;;
11809;SDS011;5962;41.566;23.734;2024-01-10T06:52:39;9.73;;;6.20;;
11809;SDS011;5962;41.566;23.734;2024-01-10T06:55:07;12.73;;;8.37;;
11809;SDS011;5962;41.566;23.734;2024-01-10T06:57:36;7.93;;;5.43;;
11809;SDS011;5962;41.566;23.734;2024-01-10T07:00:04;5.17;;;3.77;;
11809;SDS011;5962;41.566;23.734;2024-01-10T07:02:38;11.43;;;7.53;;
11809;SDS011;5962;41.566;23.734;2024-01-10T07:05:07;28.10;;;15.97;;
11809;SDS011;5962;41.566;23.734;2024-01-10T07:07:36;27.37;;;14.10;;
11809;SDS011;5962;41.566;23.734;2024-01-10T07:10:05;99.83;;;59.00;;
11809;SDS011;5962;41.566;23.734;2024-01-10T07:12:34;57.40;;;32.87;;
11809;SDS011;5962;41.566;23.734;2024-01-10T07:15:02;53.13;;;25.27;;
11809;SDS011;5962;41.566;23.734;2024-01-10T07:17:31;46.93;;;21.33;;
11809;SDS011;5962;41.566;23.734;2024-01-10T07:20:01;40.60;;;13.77;;
11809;SDS011;5962;41.566;23.734;2024-01-10T07:22:31;19.63;;;11.07;;
11809;SDS011;5962;41.566;23.734;2024-01-10T07:25:01;30.37;;;11.03;;
11809;SDS011;5962;41.566;23.734;2024-01-10T07:27:31;19.30;;;11.83;;
11809;SDS011;5962;41.566;23.734;2024-01-10T07:29:59;30.40;;;13.10;;
11809;SDS011;5962;41.566;23.734;2024-01-10T07:32:27;30.47;;;18.03;;
11809;SDS011;5962;41.566;23.734;2024-01-10T07:34:56;36.53;;;18.37;;
11809;SDS011;5962;41.566;23.734;2024-01-10T07:37:26;35.13;;;19.90;;
11809;SDS011;5962;41.566;23.734;2024-01-10T07:39:54;31.70;;;16.17;;
11809;SDS011;5962;41.566;23.734;2024-01-10T07:42:23;28.67;;;16.50;;
11809;SDS011;5962;41.566;23.734;2024-01-10T07:44:52;34.90;;;17.73;;
11809;SDS011;5962;41.566;23.734;2024-01-10T07:47:20;31.87;;;17.80;;
11809;SDS011;5962;41.566;23.734;2024-01-10T07:49:49;33.37;;;19.27;;
11809;SDS011;5962;41.566;23.734;2024-01-10T07:52:17;29.33;;;17.47;;
11809;SDS011;5962;41.566;23.734;2024-01-10T07:54:48;31.00;;;15.43;;
11809;SDS011;5962;41.566;23.734;2024-01-10T07:57:16;30.10;;;15.43;;
11809;SDS011;5962;41.566;23.734;2024-01-10T07:59:45;21.90;;;10.83;;
11809;SDS011;5962;41.566;23.734;2024-01-10T08:02:14;61.90;;;32.13;;
11809;SDS011;5962;41.566;23.734;2024-01-10T08:04:43;22.43;;;13.63;;
11809;SDS011;5962;41.566;23.734;2024-01-10T08:07:11;37.63;;;24.20;;
11809;SDS011;5962;41.566;23.734;2024-01-10T08:09:40;25.13;;;17.10;;
11809;SDS011;5962;41.566;23.734;2024-01-10T08:12:10;12.37;;;9.03;;
11809;SDS011;5962;41.566;23.734;2024-01-10T08:14:40;14.10;;;8.37;;
11809;SDS011;5962;41.566;23.734;2024-01-10T08:17:12;15.77;;;9.47;;
11809;SDS011;5962;41.566;23.734;2024-01-10T08:19:40;18.40;;;8.67;;
11809;SDS011;5962;41.566;23.734;2024-01-10T08:22:09;14.87;;;7.30;;
11809;SDS011;5962;41.566;23.734;2024-01-10T08:24:39;13.07;;;6.83;;
11809;SDS011;5962;41.566;23.734;2024-01-10T08:27:07;14.43;;;7.97;;
11809;SDS011;5962;41.566;23.734;2024-01-10T08:29:37;20.10;;;11.27;;
11809;SDS011;5962;41.566;23.734;2024-01-10T08:32:05;43.27;;;25.40;;
11809;SDS011;5962;41.566;23.734;2024-01-10T08:34:34;23.47;;;14.57;;
11809;SDS011;5962;41.566;23.734;2024-01-10T08:37:02;311.77;;;157.73;;
11809;SDS011;5962;41.566;23.734;2024-01-10T08:39:31;266.77;;;134.90;;
11809;SDS011;5962;41.566;23.734;2024-01-10T08:41:59;99.27;;;57.37;;
11809;SDS011;5962;41.566;23.734;2024-01-10T08:44:27;29.03;;;17.90;;
11809;SDS011;5962;41.566;23.734;2024-01-10T08:46:58;8.83;;;6.03;;
11809;SDS011;5962;41.566;23.734;2024-01-10T08:49:26;12.57;;;6.53;;
11809;SDS011;5962;41.566;23.734;2024-01-10T08:51:55;8.63;;;5.57;;
11809;SDS011;5962;41.566;23.734;2024-01-10T08:54:23;6.50;;;4.73;;
11809;SDS011;5962;41.566;23.734;2024-01-10T08:56:51;13.93;;;6.43;;
11809;SDS011;5962;41.566;23.734;2024-01-10T08:59:20;9.23;;;6.17;;
11809;SDS011;5962;41.566;23.734;2024-01-10T09:01:48;10.40;;;7.07;;
11809;SDS011;5962;41.566;23.734;2024-01-10T09:04:18;9.60;;;6.47;;
11809;SDS011;5962;41.566;23.734;2024-01-10T09:06:47;10.33;;;7.17;;
11809;SDS011;5962;41.566;23.734;2024-01-10T09:09:15;10.80;;;6.73;;
11809;SDS011;5962;41.566;23.734;2024-01-10T09:11:47;29.37;;;7.50;;
11809;SDS011;5962;41.566;23.734;2024-01-10T09:14:15;32.73;;;14.20;;
11809;SDS011;5962;41.566;23.734;2024-01-10T09:16:44;16.50;;;7.93;;
11809;SDS011;5962;41.566;23.734;2024-01-10T09:19:12;27.33;;;13.47;;
11809;SDS011;5962;41.566;23.734;2024-01-10T09:21:42;21.57;;;10.63;;
11809;SDS011;5962;41.566;23.734;2024-01-10T09:24:10;12.00;;;7.97;;
11809;SDS011;5962;41.566;23.734;2024-01-10T09:26:43;22.10;;;9.93;;
11809;SDS011;5962;41.566;23.734;2024-01-10T09:29:11;22.37;;;12.53;;
11809;SDS011;5962;41.566;23.734;2024-01-10T09:31:41;15.63;;;9.37;;
11809;SDS011;5962;41.566;23.734;2024-01-10T09:34:10;20.23;;;11.37;;
11809;SDS011;5962;41.566;23.734;2024-01-10T09:36:38;23.73;;;10.80;;
11809;SDS011;5962;41.566;23.734;2024-01-10T09:39:08;16.93;;;12.17;;
11809;SDS011;5962;41.566;23.734;2024-01-10T09:41:40;11.43;;;6.70;;
11809;SDS011;5962;41.566;23.734;2024-01-10T09:44:15;19.83;;;10.70;;
11809;SDS011;5962;41.566;23.734;2024-01-10T09:46:45;40.97;;;21.37;;
11809;SDS011;5962;41.566;23.734;2024-01-10T09:49:15;28.30;;;16.23;;
11809;SDS011;5962;41.566;23.734;2024-01-10T09:51:44;8.07;;;5.40;;
11809;SDS011;5962;41.566;23.734;2024-01-10T09:54:17;12.60;;;6.57;;
11809;SDS011;5962;41.566;23.734;2024-01-10T09:56:47;7.97;;;5.13;;
11809;SDS011;5962;41.566;23.734;2024-01-10T09:59:16;4.30;;;3.40;;
11809;SDS011;5962;41.566;23.734;2024-01-10T10:01:45;4.00;;;3.13;;
11809;SDS011;5962;41.566;23.734;2024-01-10T10:04:13;4.20;;;3.23;;
11809;SDS011;5962;41.566;23.734;2024-01-10T10:06:44;4.87;;;3.03;;
11809;SDS011;5962;41.566;23.734;2024-01-10T10:09:13;5.77;;;3.40;;
11809;SDS011;5962;41.566;23.734;2024-01-10T10:11:44;7.47;;;4.17;;
11809;SDS011;5962;41.566;23.734;2024-01-10T10:14:21;11.40;;;8.83;;
11809;SDS011;5962;41.566;23.734;2024-01-10T10:16:50;7.43;;;5.53;;
11809;SDS011;5962;41.566;23.734;2024-01-10T10:19:22;4.60;;;4.10;;
11809;SDS011;5962;41.566;23.734;2024-01-10T10:21:52;7.30;;;4.20;;
11809;SDS011;5962;41.566;23.734;2024-01-10T10:24:21;5.30;;;3.57;;
11809;SDS011;5962;41.566;23.734;2024-01-10T10:26:51;7.33;;;4.27;;
11809;SDS011;5962;41.566;23.734;2024-01-10T10:29:21;7.23;;;5.07;;
11809;SDS011;5962;41.566;23.734;2024-01-10T10:31:49;6.10;;;4.93;;
11809;SDS011;5962;41.566;23.734;2024-01-10T10:34:20;8.30;;;5.10;;
11809;SDS011;5962;41.566;23.734;2024-01-10T10:36:49;6.07;;;4.30;;
11809;SDS011;5962;41.566;23.734;2024-01-10T10:39:17;6.63;;;4.50;;
11809;SDS011;5962;41.566;23.734;2024-01-10T10:41:46;11.50;;;5.03;;
11809;SDS011;5962;41.566;23.734;2024-01-10T10:44:18;7.43;;;4.97;;
11809;SDS011;5962;41.566;23.734;2024-01-10T10:46:52;7.70;;;4.80;;
11809;SDS011;5962;41.566;23.734;2024-01-10T10:49:28;5.77;;;4.50;;
11809;SDS011;5962;41.566;23.734;2024-01-10T10:51:59;8.60;;;5.00;;
11809;SDS011;5962;41.566;23.734;2024-01-10T10:54:29;8.23;;;4.47;;
11809;SDS011;5962;41.566;23.734;2024-01-10T10:57:01;6.30;;;4.60;;
11809;SDS011;5962;41.566;23.734;2024-01-10T10:59:32;7.03;;;4.73;;
11809;SDS011;5962;41.566;23.734;2024-01-10T11:02:04;40.97;;;22.73;;
11809;SDS011;5962;41.566;23.734;2024-01-10T11:04:37;11.37;;;6.73;;
11809;SDS011;5962;41.566;23.734;2024-01-10T11:07:08;39.90;;;20.87;;
11809;SDS011;5962;41.566;23.734;2024-01-10T11:09:36;10.87;;;7.20;;
11809;SDS011;5962;41.566;23.734;2024-01-10T11:12:11;7.03;;;4.97;;
11809;SDS011;5962;41.566;23.734;2024-01-10T11:15:13;12.93;;;6.67;;
11809;SDS011;5962;41.566;23.734;2024-01-10T11:17:57;10.33;;;6.43;;
11809;SDS011;5962;41.566;23.734;2024-01-10T11:20:49;12.63;;;5.87;;
11809;SDS011;5962;41.566;23.734;2024-01-10T11:23:35;7.37;;;4.20;;
11809;SDS011;5962;41.566;23.734;2024-01-10T11:26:07;5.67;;;3.67;;
11809;SDS011;5962;41.566;23.734;2024-01-10T11:28:36;7.30;;;3.87;;
11809;SDS011;5962;41.566;23.734;2024-01-10T11:31:07;8.87;;;5.83;;
11809;SDS011;5962;41.566;23.734;2024-01-10T11:33:36;7.53;;;4.80;;
11809;SDS011;5962;41.566;23.734;2024-01-10T11:36:08;11.33;;;4.20;;
11809;SDS011;5962;41.566;23.734;2024-01-10T11:38:41;5.47;;;3.80;;
11809;SDS011;5962;41.566;23.734;2024-01-10T11:41:11;4.40;;;3.67;;
11809;SDS011;5962;41.566;23.734;2024-01-10T11:43:41;22.83;;;18.93;;
11809;SDS011;5962;41.566;23.734;2024-01-10T11:46:10;12.57;;;11.30;;
11809;SDS011;5962;41.566;23.734;2024-01-10T11:48:40;14.73;;;12.00;;
11809;SDS011;5962;41.566;23.734;2024-01-10T11:51:09;9.93;;;8.90;;
11809;SDS011;5962;41.566;23.734;2024-01-10T11:53:38;5.80;;;3.80;;
11809;SDS011;5962;41.566;23.734;2024-01-10T11:56:13;4.17;;;3.10;;
11809;SDS011;5962;41.566;23.734;2024-01-10T11:58:52;3.60;;;2.90;;
11809;SDS011;5962;41.566;23.734;2024-01-10T12:01:23;5.67;;;3.43;;
11809;SDS011;5962;41.566;23.734;2024-01-10T12:03:54;4.77;;;3.47;;
11809;SDS011;5962;41.566;23.734;2024-01-10T12:06:24;9.37;;;3.43;;
11809;SDS011;5962;41.566;23.734;2024-01-10T12:08:53;4.63;;;3.73;;
11809;SDS011;5962;41.566;23.734;2024-01-10T12:11:22;6.00;;;3.07;;
11809;SDS011;5962;41.566;23.734;2024-01-10T12:13:51;5.73;;;3.70;;
11809;SDS011;5962;41.566;23.734;2024-01-10T12:16:19;5.87;;;4.10;;
11809;SDS011;5962;41.566;23.734;2024-01-10T12:18:49;6.33;;;3.30;;
11809;SDS011;5962;41.566;23.734;2024-01-10T12:21:17;3.40;;;2.70;;
11809;SDS011;5962;41.566;23.734;2024-01-10T12:23:46;3.87;;;3.03;;
11809;SDS011;5962;41.566;23.734;2024-01-10T12:26:15;3.47;;;2.87;;
11809;SDS011;5962;41.566;23.734;2024-01-10T12:28:44;4.60;;;3.10;;
11809;SDS011;5962;41.566;23.734;2024-01-10T12:31:21;4.30;;;2.80;;
11809;SDS011;5962;41.566;23.734;2024-01-10T12:33:51;5.23;;;3.17;;
11809;SDS011;5962;41.566;23.734;2024-01-10T12:36:19;4.30;;;2.83;;
11809;SDS011;5962;41.566;23.734;2024-01-10T12:38:48;4.30;;;3.20;;
11809;SDS011;5962;41.566;23.734;2024-01-10T12:41:16;3.50;;;2.53;;
11809;SDS011;5962;41.566;23.734;2024-01-10T12:43:48;4.50;;;2.90;;
11809;SDS011;5962;41.566;23.734;2024-01-10T12:46:17;5.83;;;3.87;;
11809;SDS011;5962;41.566;23.734;2024-01-10T12:48:48;4.73;;;3.57;;
11809;SDS011;5962;41.566;23.734;2024-01-10T12:51:28;2.90;;;2.60;;
11809;SDS011;5962;41.566;23.734;2024-01-10T12:53:57;3.90;;;3.50;;
11809;SDS011;5962;41.566;23.734;2024-01-10T12:56:26;5.00;;;4.17;;
11809;SDS011;5962;41.566;23.734;2024-01-10T12:58:55;4.17;;;3.40;;
11809;SDS011;5962;41.566;23.734;2024-01-10T13:01:24;3.33;;;3.00;;
11809;SDS011;5962;41.566;23.734;2024-01-10T13:03:52;3.93;;;2.80;;
11809;SDS011;5962;41.566;23.734;2024-01-10T13:06:23;4.17;;;2.87;;
11809;SDS011;5962;41.566;23.734;2024-01-10T13:08:51;3.17;;;2.70;;
11809;SDS011;5962;41.566;23.734;2024-01-10T13:11:21;3.17;;;2.60;;
11809;SDS011;5962;41.566;23.734;2024-01-10T13:13:50;2.80;;;2.50;;
11809;SDS011;5962;41.566;23.734;2024-01-10T13:16:19;3.03;;;2.70;;
11809;SDS011;5962;41.566;23.734;2024-01-10T13:18:47;5.87;;;2.40;;
11809;SDS011;5962;41.566;23.734;2024-01-10T13:21:17;3.03;;;2.43;;
11809;SDS011;5962;41.566;23.734;2024-01-10T13:23:47;4.03;;;3.03;;
11809;SDS011;5962;41.566;23.734;2024-01-10T13:26:15;3.37;;;2.47;;
11809;SDS011;5962;41.566;23.734;2024-01-10T13:28:43;3.90;;;2.73;;
11809;SDS011;5962;41.566;23.734;2024-01-10T13:31:11;5.00;;;2.97;;
11809;SDS011;5962;41.566;23.734;2024-01-10T13:33:40;4.43;;;3.27;;
11809;SDS011;5962;41.566;23.734;2024-01-10T13:36:11;8.60;;;3.00;;
11809;SDS011;5962;41.566;23.734;2024-01-10T13:38:39;7.23;;;4.20;;
11809;SDS011;5962;41.566;23.734;2024-01-10T13:41:09;6.97;;;3.47;;
11809;SDS011;5962;41.566;23.734;2024-01-10T13:43:37;10.03;;;5.00;;
11809;SDS011;5962;41.566;23.734;2024-01-10T13:46:06;8.40;;;4.57;;
11809;SDS011;5962;41.566;23.734;2024-01-10T13:48:34;8.70;;;4.10;;
11809;SDS011;5962;41.566;23.734;2024-01-10T13:51:03;5.27;;;3.63;;
11809;SDS011;5962;41.566;23.734;2024-01-10T13:53:31;5.13;;;3.33;;
11809;SDS011;5962;41.566;23.734;2024-01-10T13:56:00;3.33;;;2.50;;
11809;SDS011;5962;41.566;23.734;2024-01-10T13:58:29;2.03;;;1.77;;
11809;SDS011;5962;41.566;23.734;2024-01-10T14:00:58;1.87;;;1.73;;
11809;SDS011;5962;41.566;23.734;2024-01-10T14:03:26;2.80;;;1.80;;
11809;SDS011;5962;41.566;23.734;2024-01-10T14:05:56;2.67;;;1.93;;
11809;SDS011;5962;41.566;23.734;2024-01-10T14:08:25;2.73;;;2.40;;
11809;SDS011;5962;41.566;23.734;2024-01-10T14:10:53;4.47;;;2.67;;
11809;SDS011;5962;41.566;23.734;2024-01-10T14:13:21;5.87;;;2.83;;
11809;SDS011;5962;41.566;23.734;2024-01-10T14:15:52;3.03;;;2.23;;
11809;SDS011;5962;41.566;23.734;2024-01-10T14:18:20;6.10;;;2.73;;
11809;SDS011;5962;41.566;23.734;2024-01-10T14:20:49;5.07;;;2.27;;
11809;SDS011;5962;41.566;23.734;2024-01-10T14:23:17;3.20;;;2.00;;
11809;SDS011;5962;41.566;23.734;2024-01-10T14:25:46;5.70;;;2.17;;
11809;SDS011;5962;41.566;23.734;2024-01-10T14:28:15;10.13;;;5.13;;
11809;SDS011;5962;41.566;23.734;2024-01-10T14:30:43;17.87;;;9.67;;
11809;SDS011;5962;41.566;23.734;2024-01-10T14:33:13;16.57;;;7.37;;
11809;SDS011;5962;41.566;23.734;2024-01-10T14:35:42;10.27;;;5.87;;
11809;SDS011;5962;41.566;23.734;2024-01-10T14:38:11;18.53;;;7.57;;
11809;SDS011;5962;41.566;23.734;2024-01-10T14:40:39;23.00;;;8.70;;
11809;SDS011;5962;41.566;23.734;2024-01-10T14:43:07;30.23;;;19.53;;
11809;SDS011;5962;41.566;23.734;2024-01-10T14:45:36;52.57;;;27.83;;
11809;SDS011;5962;41.566;23.734;2024-01-10T14:48:04;46.90;;;23.73;;
11809;SDS011;5962;41.566;23.734;2024-01-10T14:50:35;57.30;;;25.97;;
11809;SDS011;5962;41.566;23.734;2024-01-10T14:53:03;50.27;;;24.93;;
11809;SDS011;5962;41.566;23.734;2024-01-10T14:55:31;64.57;;;27.10;;